createdAt,value
2022-11-13T00:00:13.403Z,101765.00
2022-11-13T00:01:38.865Z,101761.19
2022-11-13T00:02:13.008Z,101774.31
2022-11-13T00:02:53.912Z,101766.84
2022-11-13T00:03:35.958Z,101768.91
2022-11-13T00:04:16.852Z,101761.75
2022-11-13T00:04:56.893Z,101764.25
2022-11-13T00:05:36.865Z,101762.63
2022-11-13T00:06:18.916Z,101757.84
2022-11-13T00:06:59.580Z,101760.28
2022-11-13T00:07:39.876Z,101763.00
2022-11-13T00:08:19.850Z,101744.53
2022-11-13T00:09:00.930Z,101759.44
2022-11-13T00:09:40.849Z,101763.00
2022-11-13T00:10:21.888Z,101771.69
2022-11-13T00:11:24.862Z,101759.81
2022-11-13T00:12:04.897Z,101765.41
2022-11-13T00:12:44.840Z,101758.25
2022-11-13T00:13:32.860Z,101763.88
2022-11-13T00:14:06.516Z,101770.81
2022-11-13T00:14:53.849Z,101767.25
2022-11-13T00:15:27.666Z,101768.88
2022-11-13T00:16:18.849Z,101775.16
2022-11-13T00:16:52.601Z,101761.84
2022-11-13T00:17:41.869Z,101765.00
2022-11-13T00:18:15.554Z,101767.59
2022-11-13T00:18:56.843Z,101762.59
2022-11-13T00:19:30.931Z,101752.63
2022-11-13T00:20:05.511Z,101777.78
2022-11-13T00:20:45.837Z,101766.38
2022-11-13T00:21:27.169Z,101777.78
2022-11-13T00:22:00.619Z,101771.56
2022-11-13T00:22:40.840Z,101767.13
2022-11-13T00:23:14.880Z,101762.28
2022-11-13T00:23:49.027Z,101751.19
2022-11-13T00:24:29.871Z,101758.81
2022-11-13T00:25:03.872Z,101769.13
2022-11-13T00:25:37.499Z,101759.38
2022-11-13T00:26:26.832Z,101764.81
2022-11-13T00:27:00.916Z,101768.25
2022-11-13T00:27:34.803Z,101768.16
2022-11-13T00:28:14.867Z,101762.09
2022-11-13T00:28:48.892Z,101772.13
2022-11-13T00:29:22.542Z,101772.13
2022-11-13T00:30:03.850Z,101774.72
2022-11-13T00:30:37.926Z,101773.69
2022-11-13T00:31:14.207Z,101777.13
2022-11-13T00:31:53.820Z,101770.22
2022-11-13T00:32:27.860Z,101772.69
2022-11-13T00:33:01.549Z,101763.72
2022-11-13T00:34:09.040Z,101761.13
2022-11-13T00:34:52.300Z,101770.31
2022-11-13T00:35:32.861Z,101765.03
2022-11-13T00:36:29.949Z,101771.13
2022-11-13T00:37:09.844Z,101762.13
2022-11-13T00:37:49.862Z,101774.56
2022-11-13T00:38:30.029Z,101767.44
2022-11-13T00:39:10.888Z,101765.69
2022-11-13T00:39:53.417Z,101772.66
2022-11-13T00:40:44.837Z,101773.50
2022-11-13T00:41:18.517Z,101770.69
2022-11-13T00:42:05.832Z,101762.75
2022-11-13T00:42:39.549Z,101759.31
2022-11-13T00:43:26.819Z,101768.97
2022-11-13T00:44:00.487Z,101755.72
2022-11-13T00:44:47.801Z,101765.28
2022-11-13T00:45:21.538Z,101762.56
2022-11-13T00:46:09.842Z,101765.38
2022-11-13T00:46:43.496Z,101770.69
2022-11-13T00:47:30.854Z,101766.13
2022-11-13T00:48:04.658Z,101772.84
2022-11-13T00:48:52.839Z,101760.91
2022-11-13T00:49:26.495Z,101767.22
2022-11-13T00:50:13.832Z,101762.75
2022-11-13T00:50:47.937Z,101767.22
2022-11-13T00:51:35.882Z,101763.56
2022-11-13T00:52:09.580Z,101765.28
2022-11-13T00:52:56.815Z,101765.59
2022-11-13T00:53:30.552Z,101761.03
2022-11-13T00:54:17.819Z,101758.56
2022-11-13T00:54:51.523Z,101763.75
2022-11-13T00:55:38.808Z,101760.41
2022-11-13T00:56:12.466Z,101750.63
2022-11-13T00:57:00.827Z,101754.44
2022-11-13T00:57:34.685Z,101750.97
2022-11-13T00:58:21.794Z,101751.84
2022-11-13T00:58:55.509Z,101737.84
2022-11-13T00:59:42.820Z,101747.50
2022-11-13T01:00:16.935Z,101749.22
2022-11-13T01:01:03.805Z,101742.84
2022-11-13T01:01:37.521Z,101745.97
2022-11-13T01:02:25.863Z,101746.84
2022-11-13T01:03:00.031Z,101740.53
2022-11-13T01:03:47.818Z,101739.13
2022-11-13T01:04:21.807Z,101742.50
2022-11-13T01:05:08.836Z,101752.34
2022-11-13T01:05:44.764Z,101725.34
2022-11-13T01:06:35.914Z,101738.59
2022-11-13T01:07:09.576Z,101742.91
2022-11-13T01:07:50.813Z,101743.78
2022-11-13T01:08:25.009Z,101729.38
2022-11-13T01:09:02.383Z,101742.50
2022-11-13T01:09:43.777Z,101736.09
2022-11-13T01:10:17.826Z,101739.91
2022-11-13T01:10:53.745Z,101731.88
2022-11-13T01:11:36.773Z,101737.06
2022-11-13T01:12:16.920Z,101725.91
2022-11-13T01:12:57.814Z,101735.34
2022-11-13T01:13:37.809Z,101736.31
2022-11-13T01:14:17.807Z,101736.31
2022-11-13T01:14:57.931Z,101728.97
2022-11-13T01:15:37.801Z,101728.84
2022-11-13T01:16:19.827Z,101739.03
2022-11-13T01:16:59.792Z,101732.09
2022-11-13T01:17:39.805Z,101724.25
2022-11-13T01:18:20.815Z,101728.50
2022-11-13T01:19:01.900Z,101722.13
2022-11-13T01:19:41.777Z,101731.22
2022-11-13T01:20:22.820Z,101721.88
2022-11-13T01:21:16.803Z,101714.53
2022-11-13T01:21:56.828Z,101721.47
2022-11-13T01:22:36.777Z,101722.22
2022-11-13T01:23:17.827Z,101721.13
2022-11-13T01:23:58.790Z,101716.25
2022-11-13T01:24:38.795Z,101730.13
2022-11-13T01:25:18.769Z,101719.72
2022-11-13T01:25:58.795Z,101735.53
2022-11-13T01:26:38.752Z,101716.69
2022-11-13T01:27:18.826Z,101719.72
2022-11-13T01:27:58.797Z,101729.78
2022-11-13T01:28:39.852Z,101726.00
2022-11-13T01:29:19.789Z,101710.28
2022-11-13T01:30:00.802Z,101721.78
2022-11-13T01:30:41.771Z,101713.84
2022-11-13T01:31:25.927Z,101719.94
2022-11-13T01:32:05.751Z,101717.88
2022-11-13T01:32:45.818Z,101715.50
2022-11-13T01:33:25.783Z,101700.75
2022-11-13T01:34:06.806Z,101717.13
2022-11-13T01:34:46.794Z,101711.94
2022-11-13T01:35:26.800Z,101727.09
2022-11-13T01:36:16.769Z,101706.53
2022-11-13T01:36:56.816Z,101704.88
2022-11-13T01:37:36.780Z,101715.59
2022-11-13T01:38:16.775Z,101693.00
2022-11-13T01:38:57.758Z,101701.72
2022-11-13T01:39:38.807Z,101715.81
2022-11-13T01:40:20.809Z,101717.53
2022-11-13T01:41:00.904Z,101692.72
2022-11-13T01:41:41.760Z,101707.81
2022-11-13T01:42:21.819Z,101707.81
2022-11-13T01:43:01.754Z,101706.03
2022-11-13T01:43:44.802Z,101702.75
2022-11-13T01:44:25.747Z,101710.84
2022-11-13T01:45:07.797Z,101714.47
2022-11-13T01:46:05.765Z,101713.56
2022-11-13T01:46:58.850Z,101720.06
2022-11-13T01:47:38.752Z,101712.25
2022-11-13T01:48:19.813Z,101711.69
2022-11-13T01:49:45.760Z,101703.38
2022-11-13T01:50:26.784Z,101709.66
2022-11-13T01:51:06.774Z,101707.06
2022-11-13T01:51:53.760Z,101701.44
2022-11-13T01:52:40.763Z,101686.47
2022-11-13T01:53:20.809Z,101705.56
2022-11-13T01:54:01.761Z,101691.00
2022-11-13T01:54:47.787Z,101706.75
2022-11-13T01:55:27.759Z,101704.06
2022-11-13T01:56:15.806Z,101708.56
2022-11-13T01:56:49.593Z,101696.44
2022-11-13T01:57:37.736Z,101700.66
2022-11-13T01:58:12.191Z,101708.03
2022-11-13T01:59:07.735Z,101691.44
2022-11-13T01:59:50.308Z,101705.34
2022-11-13T02:00:36.755Z,101709.22
2022-11-13T02:01:10.460Z,101702.69
2022-11-13T02:01:51.826Z,101694.03
2022-11-13T02:02:25.791Z,101686.00
2022-11-13T02:02:59.524Z,101700.97
2022-11-13T02:03:40.740Z,101694.50
2022-11-13T02:04:14.787Z,101700.31
2022-11-13T02:04:48.479Z,101696.66
2022-11-13T02:05:28.724Z,101698.69
2022-11-13T02:06:02.804Z,101698.00
2022-11-13T02:06:51.552Z,101694.44
2022-11-13T02:07:32.774Z,101699.38
2022-11-13T02:08:06.799Z,101688.13
2022-11-13T02:08:40.448Z,101688.31
2022-11-13T02:09:24.731Z,101691.69
2022-11-13T02:10:02.768Z,101703.47
2022-11-13T02:10:36.432Z,101684.16
2022-11-13T02:11:17.714Z,101680.06
2022-11-13T02:11:52.751Z,101691.53
2022-11-13T02:12:42.770Z,101694.97
2022-11-13T02:13:22.778Z,101693.19
2022-11-13T02:14:02.733Z,101678.09
2022-11-13T02:14:46.773Z,101696.75
2022-11-13T02:15:32.734Z,101684.38
2022-11-13T02:16:14.780Z,101692.09
2022-11-13T02:16:55.721Z,101686.34
2022-11-13T02:17:58.734Z,101695.88
2022-11-13T02:18:32.864Z,101693.25
2022-11-13T02:19:28.730Z,101698.19
2022-11-13T02:20:04.917Z,101690.88
2022-11-13T02:21:07.735Z,101698.78
2022-11-13T02:21:59.060Z,101700.50
2022-11-13T02:22:48.726Z,101693.66
2022-11-13T02:23:50.752Z,101694.34
2022-11-13T02:24:45.549Z,101703.44
2022-11-13T02:25:26.756Z,101700.38
2022-11-13T02:26:07.861Z,101689.31
2022-11-13T02:26:48.736Z,101695.19
2022-11-13T02:27:46.841Z,101701.47
2022-11-13T02:28:28.014Z,101692.69
2022-11-13T02:29:14.731Z,101698.00
2022-11-13T02:29:48.435Z,101693.75
2022-11-13T02:30:40.717Z,101699.06
2022-11-13T02:31:14.956Z,101704.47
2022-11-13T02:32:01.734Z,101705.34
2022-11-13T02:32:35.408Z,101700.78
2022-11-13T02:33:43.726Z,101691.25
2022-11-13T02:34:23.727Z,101694.63
2022-11-13T02:35:03.759Z,101697.03
2022-11-13T02:35:44.705Z,101686.72
2022-11-13T02:36:28.903Z,101691.75
2022-11-13T02:37:15.708Z,101701.88
2022-11-13T02:37:49.747Z,101690.94
2022-11-13T02:38:37.722Z,101693.00
2022-11-13T02:39:16.865Z,101695.78
2022-11-13T02:39:57.716Z,101689.63
2022-11-13T02:40:39.785Z,101699.47
2022-11-13T02:41:19.701Z,101699.28
2022-11-13T02:41:59.768Z,101696.19
2022-11-13T02:42:39.697Z,101689.06
2022-11-13T02:43:19.739Z,101694.06
2022-11-13T02:43:59.693Z,101682.78
2022-11-13T02:44:39.753Z,101691.56
2022-11-13T02:45:20.741Z,101689.06
2022-11-13T02:46:00.753Z,101696.97
2022-11-13T02:46:42.699Z,101688.06
2022-11-13T02:47:22.748Z,101685.47
2022-11-13T02:48:03.740Z,101692.31
2022-11-13T02:48:43.736Z,101691.00
2022-11-13T02:49:23.739Z,101681.44
2022-11-13T02:50:03.773Z,101692.50
2022-11-13T02:50:44.700Z,101694.69
2022-11-13T02:51:24.752Z,101694.84
2022-11-13T02:52:04.755Z,101691.00
2022-11-13T02:52:44.828Z,101693.03
2022-11-13T02:53:25.695Z,101687.25
2022-11-13T02:54:05.747Z,101690.03
2022-11-13T02:54:45.679Z,101690.13
2022-11-13T02:55:25.811Z,101686.97
2022-11-13T02:56:06.700Z,101679.25
2022-11-13T02:56:46.759Z,101689.66
2022-11-13T02:57:26.683Z,101696.44
2022-11-13T02:58:06.747Z,101686.59
2022-11-13T02:58:46.688Z,101691.69
2022-11-13T02:59:26.732Z,101702.31
2022-11-13T03:00:10.694Z,101689.19
2022-11-13T03:00:53.738Z,101688.22
2022-11-13T03:01:34.807Z,101691.16
2022-11-13T03:02:14.732Z,101692.38
2022-11-13T03:02:55.685Z,101694.09
2022-11-13T03:05:05.395Z,101681.97
2022-11-13T03:05:35.729Z,101688.03
2022-11-13T03:06:15.689Z,101691.63
2022-11-13T03:06:55.861Z,101696.91
2022-11-13T03:07:29.753Z,101678.78
2022-11-13T03:08:16.672Z,101690.94
2022-11-13T03:08:50.761Z,101692.88
2022-11-13T03:09:37.668Z,101695.56
2022-11-13T03:10:12.757Z,101691.22
2022-11-13T03:11:00.679Z,101688.44
2022-11-13T03:11:34.757Z,101692.09
2022-11-13T03:12:16.699Z,101684.47
2022-11-13T03:12:56.718Z,101697.59
2022-11-13T03:13:36.675Z,101693.16
2022-11-13T03:14:16.737Z,101686.41
2022-11-13T03:14:56.664Z,101696.25
2022-11-13T03:15:36.729Z,101693.66
2022-11-13T03:16:20.672Z,101688.16
2022-11-13T03:17:00.703Z,101686.41
2022-11-13T03:17:41.712Z,101680.81
2022-11-13T03:18:21.787Z,101696.91
2022-11-13T03:19:03.672Z,101678.69
2022-11-13T03:19:43.754Z,101697.13
2022-11-13T03:20:24.656Z,101688.16
2022-11-13T03:21:04.715Z,101689.19
2022-11-13T03:21:44.659Z,101697.50
2022-11-13T03:22:24.913Z,101691.53
2022-11-13T03:23:05.662Z,101688.94
2022-11-13T03:23:46.832Z,101697.03
2022-11-13T03:24:27.726Z,101694.81
2022-11-13T03:25:10.695Z,101688.94
2022-11-13T03:25:50.669Z,101681.41
2022-11-13T03:26:30.752Z,101700.88
2022-11-13T03:27:10.663Z,101691.72
2022-11-13T03:27:50.697Z,101693.66
2022-11-13T03:28:31.660Z,101680.44
2022-11-13T03:29:11.695Z,101687.28
2022-11-13T03:29:51.642Z,101678.31
2022-11-13T03:30:31.730Z,101692.28
2022-11-13T03:31:12.660Z,101690.34
2022-11-13T03:31:52.713Z,101680.81
2022-11-13T03:32:32.668Z,101686.78
2022-11-13T03:33:12.696Z,101687.47
2022-11-13T03:33:53.731Z,101680.41
2022-11-13T03:34:33.734Z,101691.22
2022-11-13T03:35:15.642Z,101693.75
2022-11-13T03:35:55.752Z,101691.78
2022-11-13T03:36:35.643Z,101691.03
2022-11-13T03:37:15.695Z,101689.97
2022-11-13T03:37:56.655Z,101694.22
2022-11-13T03:38:36.716Z,101685.53
2022-11-13T03:39:17.676Z,101671.66
2022-11-13T03:39:57.696Z,101683.03
2022-11-13T03:40:37.678Z,101680.22
2022-11-13T03:41:17.801Z,101694.50
2022-11-13T03:41:57.639Z,101683.03
2022-11-13T03:42:37.680Z,101687.16
2022-11-13T03:43:17.630Z,101694.31
2022-11-13T03:43:57.744Z,101691.69
2022-11-13T03:44:38.660Z,101683.69
2022-11-13T03:45:18.705Z,101684.16
2022-11-13T03:45:58.674Z,101694.78
2022-11-13T03:46:38.688Z,101688.81
2022-11-13T03:47:18.648Z,101685.03
2022-11-13T03:47:58.701Z,101686.00
2022-11-13T03:48:38.628Z,101690.94
2022-11-13T03:49:18.707Z,101693.13
2022-11-13T03:49:59.660Z,101687.16
2022-11-13T03:50:45.238Z,101696.06
2022-11-13T03:51:25.661Z,101678.09
2022-11-13T03:52:05.679Z,101678.28
2022-11-13T03:52:45.628Z,101678.50
2022-11-13T03:53:25.693Z,101677.69
2022-11-13T03:54:06.625Z,101682.81
2022-11-13T03:54:46.673Z,101681.97
2022-11-13T03:55:27.651Z,101672.13
2022-11-13T03:56:07.668Z,101680.88
2022-11-13T03:56:47.643Z,101676.16
2022-11-13T03:57:27.731Z,101676.16
2022-11-13T03:58:07.644Z,101673.44
2022-11-13T03:58:49.702Z,101672.47
2022-11-13T03:59:29.624Z,101677.03
2022-11-13T04:00:14.659Z,101676.91
2022-11-13T04:00:55.653Z,101678.84
2022-11-13T04:01:35.704Z,101672.69
2022-11-13T04:02:15.627Z,101670.56
2022-11-13T04:02:55.676Z,101664.66
2022-11-13T04:03:35.644Z,101675.28
2022-11-13T04:04:15.778Z,101673.56
2022-11-13T04:04:55.642Z,101685.25
2022-11-13T04:05:35.669Z,101678.00
2022-11-13T04:06:16.656Z,101675.41
2022-11-13T04:06:56.695Z,101668.34
2022-11-13T04:07:36.611Z,101661.31
2022-11-13T04:08:16.696Z,101674.03
2022-11-13T04:08:56.605Z,101673.75
2022-11-13T04:09:36.663Z,101676.34
2022-11-13T04:10:16.614Z,101675.28
2022-11-13T04:10:56.679Z,101683.13
2022-11-13T04:11:37.644Z,101669.13
2022-11-13T04:12:17.656Z,101669.13
2022-11-13T04:12:57.610Z,101670.75
2022-11-13T04:13:37.684Z,101663.16
2022-11-13T04:14:17.598Z,101670.75
2022-11-13T04:14:57.738Z,101665.53
2022-11-13T04:15:37.596Z,101670.00
2022-11-13T04:16:17.677Z,101662.28
2022-11-13T04:16:58.649Z,101660.72
2022-11-13T04:17:38.674Z,101676.56
2022-11-13T04:18:18.619Z,101665.84
2022-11-13T04:18:58.675Z,101664.88
2022-11-13T04:19:38.599Z,101659.00
2022-11-13T04:20:18.631Z,101629.09
2022-11-13T04:20:58.611Z,101666.41
2022-11-13T04:21:38.636Z,101673.28
2022-11-13T04:22:19.625Z,101673.97
2022-11-13T04:23:00.665Z,101672.13
2022-11-13T04:23:40.611Z,101657.63
2022-11-13T04:24:20.674Z,101678.50
2022-11-13T04:25:00.608Z,101673.28
2022-11-13T04:25:40.672Z,101672.41
2022-11-13T04:26:20.595Z,101660.25
2022-11-13T04:27:01.638Z,101662.69
2022-11-13T04:27:42.607Z,101645.47
2022-11-13T04:28:22.656Z,101666.31
2022-11-13T04:29:02.627Z,101673.56
2022-11-13T04:29:42.646Z,101670.97
2022-11-13T04:30:22.608Z,101668.25
2022-11-13T04:31:02.683Z,101674.41
2022-11-13T04:31:42.584Z,101668.06
2022-11-13T04:32:22.640Z,101661.13
2022-11-13T04:33:03.607Z,101664.59
2022-11-13T04:33:43.630Z,101668.44
2022-11-13T04:34:23.586Z,101651.09
2022-11-13T04:35:03.614Z,101668.06
2022-11-13T04:35:44.599Z,101671.75
2022-11-13T04:36:24.649Z,101670.78
2022-11-13T04:37:04.609Z,101675.78
2022-11-13T04:37:44.665Z,101679.25
2022-11-13T04:38:25.764Z,101664.13
2022-11-13T04:39:05.617Z,101668.53
2022-11-13T04:39:45.613Z,101678.31
2022-11-13T04:40:25.695Z,101676.47
2022-11-13T04:41:24.595Z,101677.50
2022-11-13T04:42:23.361Z,101674.06
2022-11-13T04:43:03.601Z,101661.91
2022-11-13T04:43:44.621Z,101662.88
2022-11-13T04:44:18.632Z,101677.91
2022-11-13T04:45:05.586Z,101672.41
2022-11-13T04:45:39.621Z,101671.75
2022-11-13T04:46:26.573Z,101670.97
2022-11-13T04:47:00.600Z,101662.09
2022-11-13T04:47:47.571Z,101669.50
2022-11-13T04:48:21.617Z,101641.72
2022-11-13T04:49:08.619Z,101664.88
2022-11-13T04:49:42.650Z,101661.03
2022-11-13T04:50:29.581Z,101670.59
2022-11-13T04:51:03.659Z,101668.81
2022-11-13T04:51:50.567Z,101670.78
2022-11-13T04:52:24.620Z,101657.06
2022-11-13T04:53:11.585Z,101665.75
2022-11-13T04:53:45.615Z,101661.88
2022-11-13T04:54:32.584Z,101671.91
2022-11-13T04:55:06.646Z,101662.94
2022-11-13T04:55:53.585Z,101670.66
2022-11-13T04:56:27.633Z,101674.44
2022-11-13T04:57:14.594Z,101687.97
2022-11-13T04:57:51.467Z,101679.84
2022-11-13T04:58:38.591Z,101660.47
2022-11-13T04:59:12.639Z,101674.84
2022-11-13T04:59:53.583Z,101662.28
2022-11-13T05:00:33.615Z,101675.31
2022-11-13T05:01:13.553Z,101667.19
2022-11-13T05:01:55.535Z,101668.34
2022-11-13T05:02:35.576Z,101675.41
2022-11-13T05:03:15.636Z,101665.94
2022-11-13T05:03:55.588Z,101665.88
2022-11-13T05:04:35.614Z,101666.63
2022-11-13T05:05:16.590Z,101665.75
2022-11-13T05:05:56.669Z,101670.78
2022-11-13T05:06:36.612Z,101678.28
2022-11-13T05:07:16.637Z,101679.44
2022-11-13T05:07:56.556Z,101668.47
2022-11-13T05:08:36.640Z,101674.63
2022-11-13T05:09:17.570Z,101662.88
2022-11-13T05:09:57.607Z,101662.47
2022-11-13T05:10:38.620Z,101671.16
2022-11-13T05:11:18.694Z,101663.34
2022-11-13T05:11:58.546Z,101657.47
2022-11-13T05:12:38.625Z,101669.03
2022-11-13T05:13:18.546Z,101675.50
2022-11-13T05:14:03.204Z,101659.59
2022-11-13T05:14:45.573Z,101670.19
2022-11-13T05:15:26.590Z,101680.72
2022-11-13T05:16:13.571Z,101683.53
2022-11-13T05:16:53.630Z,101678.97
2022-11-13T05:17:33.556Z,101670.78
2022-11-13T05:18:13.604Z,101677.91
2022-11-13T05:18:54.545Z,101677.25
2022-11-13T05:19:34.650Z,101680.22
2022-11-13T05:20:15.540Z,101681.88
2022-11-13T05:20:55.632Z,101675.00
2022-11-13T05:21:36.580Z,101670.56
2022-11-13T05:22:16.609Z,101683.69
2022-11-13T05:22:56.558Z,101680.03
2022-11-13T05:23:36.663Z,101675.88
2022-11-13T05:24:18.544Z,101683.69
2022-11-13T05:24:58.622Z,101676.38
2022-11-13T05:25:38.542Z,101675.81
2022-11-13T05:26:20.572Z,101671.34
2022-11-13T05:27:01.547Z,101683.53
2022-11-13T05:27:41.588Z,101687.19
2022-11-13T05:28:21.573Z,101676.94
2022-11-13T05:29:05.713Z,101678.69
2022-11-13T05:29:46.552Z,101668.09
2022-11-13T05:30:26.603Z,101681.28
2022-11-13T05:31:33.539Z,101674.25
2022-11-13T05:32:20.568Z,101677.34
2022-11-13T05:33:14.533Z,101683.09
2022-11-13T05:34:08.605Z,101683.25
2022-11-13T05:35:02.549Z,101681.34
2022-11-13T05:35:56.546Z,101691.28
2022-11-13T05:36:50.547Z,101688.38
2022-11-13T05:37:37.565Z,101689.25
2022-11-13T05:38:11.573Z,101683.25
2022-11-13T05:38:59.536Z,101687.53
2022-11-13T05:39:33.594Z,101692.06
2022-11-13T05:40:20.511Z,101686.66
2022-11-13T05:40:54.638Z,101679.53
2022-11-13T05:41:41.552Z,101682.88
2022-11-13T05:42:15.595Z,101686.75
2022-11-13T05:43:03.561Z,101690.22
2022-11-13T05:43:37.574Z,101689.25
2022-11-13T05:44:24.525Z,101693.03
2022-11-13T05:44:58.576Z,101688.66
2022-11-13T05:45:45.512Z,101678.50
2022-11-13T05:46:28.634Z,101685.84
2022-11-13T05:47:15.545Z,101690.66
2022-11-13T05:47:50.355Z,101687.47
2022-11-13T05:48:31.846Z,101676.19
2022-11-13T05:49:12.567Z,101684.06
2022-11-13T05:49:52.531Z,101681.31
2022-11-13T05:50:32.649Z,101669.69
2022-11-13T05:51:17.544Z,101691.50
2022-11-13T05:51:57.578Z,101681.69
2022-11-13T05:52:38.516Z,101684.00
2022-11-13T05:53:18.565Z,101680.50
2022-11-13T05:54:00.552Z,101675.72
2022-11-13T05:54:40.562Z,101679.38
2022-11-13T05:55:23.374Z,101677.53
2022-11-13T05:56:21.601Z,101684.78
2022-11-13T05:57:01.503Z,101679.19
2022-11-13T05:57:41.571Z,101675.72
2022-11-13T05:58:21.500Z,101658.53
2022-11-13T05:59:09.538Z,101666.16
2022-11-13T06:00:03.514Z,101682.66
2022-11-13T06:00:57.529Z,101677.25
2022-11-13T06:01:53.577Z,101679.19
2022-11-13T06:02:48.527Z,101679.19
2022-11-13T06:03:42.524Z,101677.44
2022-11-13T06:04:29.534Z,101665.13
2022-11-13T06:05:03.560Z,101679.19
2022-11-13T06:05:50.484Z,101665.78
2022-11-13T06:06:27.552Z,101672.84
2022-11-13T06:07:14.591Z,101658.75
2022-11-13T06:07:48.561Z,101670.03
2022-11-13T06:08:36.523Z,101671.88
2022-11-13T06:09:13.006Z,101667.34
2022-11-13T06:09:52.516Z,101663.00
2022-11-13T06:10:32.560Z,101669.34
2022-11-13T06:11:16.532Z,101667.59
2022-11-13T06:11:56.571Z,101671.88
2022-11-13T06:12:37.516Z,101654.09
2022-11-13T06:13:17.568Z,101669.28
2022-11-13T06:13:58.511Z,101669.94
2022-11-13T06:14:38.542Z,101667.50
2022-11-13T06:15:18.560Z,101670.78
2022-11-13T06:15:58.550Z,101664.75
2022-11-13T06:16:44.499Z,101665.59
2022-11-13T06:17:24.538Z,101658.47
2022-11-13T06:18:04.492Z,101660.19
2022-11-13T06:18:45.576Z,101667.22
2022-11-13T06:19:25.484Z,101662.78
2022-11-13T06:20:05.599Z,101663.75
2022-11-13T06:20:45.515Z,101664.53
2022-11-13T06:21:30.859Z,101661.16
2022-11-13T06:22:10.519Z,101662.78
2022-11-13T06:22:50.537Z,101652.97
2022-11-13T06:23:30.492Z,101660.88
2022-11-13T06:24:11.554Z,101666.94
2022-11-13T06:24:51.492Z,101650.06
2022-11-13T06:25:31.516Z,101647.28
2022-11-13T06:26:19.508Z,101667.44
2022-11-13T06:26:59.539Z,101662.03
2022-11-13T06:27:39.483Z,101639.25
2022-11-13T06:28:20.544Z,101656.84
2022-11-13T06:29:01.494Z,101656.63
2022-11-13T06:29:41.575Z,101660.31
2022-11-13T06:30:21.471Z,101653.34
2022-11-13T06:31:01.512Z,101657.50
2022-11-13T06:31:43.497Z,101665.72
2022-11-13T06:32:23.523Z,101660.13
2022-11-13T06:33:03.497Z,101653.75
2022-11-13T06:33:45.578Z,101655.59
2022-11-13T06:34:25.484Z,101646.69
2022-11-13T06:35:05.523Z,101656.25
2022-11-13T06:35:45.481Z,101652.78
2022-11-13T06:36:28.711Z,101654.34
2022-11-13T06:37:08.492Z,101656.25
2022-11-13T06:37:48.501Z,101644.09
2022-11-13T06:38:28.687Z,101660.50
2022-11-13T06:39:13.712Z,101662.34
2022-11-13T06:39:53.497Z,101660.69
2022-11-13T06:40:33.537Z,101661.59
2022-11-13T06:41:18.477Z,101656.94
2022-11-13T06:41:58.513Z,101634.56
2022-11-13T06:42:38.494Z,101659.53
2022-11-13T06:43:18.514Z,101650.09
2022-11-13T06:44:02.787Z,101650.09
2022-11-13T06:44:43.500Z,101649.59
2022-11-13T06:45:23.474Z,101649.81
2022-11-13T06:46:04.893Z,101649.34
2022-11-13T06:46:44.467Z,101645.84
2022-11-13T06:47:24.544Z,101645.94
2022-11-13T06:48:04.505Z,101645.84
2022-11-13T06:48:44.616Z,101643.25
2022-11-13T06:49:24.459Z,101648.91
2022-11-13T06:50:04.507Z,101657.88
2022-11-13T06:50:48.280Z,101651.44
2022-11-13T06:51:33.906Z,101646.22
2022-11-13T06:52:14.472Z,101659.13
2022-11-13T06:52:54.527Z,101650.28
2022-11-13T06:53:35.487Z,101632.19
2022-11-13T06:54:15.502Z,101656.53
2022-11-13T06:54:55.467Z,101644.97
2022-11-13T06:55:35.496Z,101648.53
2022-11-13T06:56:16.625Z,101654.09
2022-11-13T06:56:56.512Z,101647.94
2022-11-13T06:57:36.440Z,101638.13
2022-11-13T06:58:16.490Z,101652.00
2022-11-13T06:58:57.503Z,101648.34
2022-11-13T06:59:37.533Z,101646.81
2022-11-13T07:00:18.460Z,101642.28
2022-11-13T07:00:59.520Z,101649.31
2022-11-13T07:01:39.551Z,101656.44
2022-11-13T07:02:20.488Z,101654.69
2022-11-13T07:03:00.440Z,101655.47
2022-11-13T07:03:40.545Z,101658.84
2022-11-13T07:04:21.460Z,101659.72
2022-11-13T07:04:55.181Z,101655.97
2022-11-13T07:05:42.463Z,101663.00
2022-11-13T07:06:20.114Z,101649.50
2022-11-13T07:07:07.501Z,101659.94
2022-11-13T07:07:41.161Z,101641.69
2022-11-13T07:08:29.793Z,101658.19
2022-11-13T07:09:04.233Z,101661.06
2022-11-13T07:09:45.464Z,101651.63
2022-11-13T07:10:19.473Z,101656.16
2022-11-13T07:10:56.638Z,101669.16
2022-11-13T07:11:36.431Z,101664.75
2022-11-13T07:12:12.519Z,101641.88
2022-11-13T07:12:49.405Z,101652.09
2022-11-13T07:13:34.448Z,101663.59
2022-11-13T07:14:08.467Z,101656.63
2022-11-13T07:14:42.124Z,101661.88
2022-11-13T07:15:23.474Z,101674.19
2022-11-13T07:15:57.493Z,101668.63
2022-11-13T07:17:08.087Z,101670.34
2022-11-13T07:17:38.535Z,101672.91
2022-11-13T07:18:25.747Z,101656.06
2022-11-13T07:19:00.495Z,101656.72
2022-11-13T07:19:47.474Z,101658.44
2022-11-13T07:20:21.552Z,101643.94
2022-11-13T07:21:01.477Z,101667.00
2022-11-13T07:21:41.511Z,101662.47
2022-11-13T07:22:21.430Z,101666.72
2022-11-13T07:23:06.505Z,101662.47
2022-11-13T07:23:49.440Z,101666.84
2022-11-13T07:24:29.493Z,101666.84
2022-11-13T07:25:09.439Z,101666.16
2022-11-13T07:25:49.538Z,101665.94
2022-11-13T07:26:30.450Z,101666.84
2022-11-13T07:27:10.478Z,101656.31
2022-11-13T07:27:53.442Z,101656.91
2022-11-13T07:28:33.547Z,101655.53
2022-11-13T07:29:13.428Z,101667.69
2022-11-13T07:29:53.479Z,101661.59
2022-11-13T07:30:34.426Z,101656.22
2022-11-13T07:31:16.571Z,101657.94
2022-11-13T07:31:56.456Z,101664.78
2022-11-13T07:32:37.095Z,101664.03
2022-11-13T07:33:17.508Z,101661.97
2022-11-13T07:33:57.603Z,101657.84
2022-11-13T07:34:38.426Z,101659.38
2022-11-13T07:35:20.515Z,101663.91
2022-11-13T07:36:04.423Z,101650.81
2022-11-13T07:36:44.596Z,101669.22
2022-11-13T07:37:25.431Z,101662.75
2022-11-13T07:38:06.492Z,101644.19
2022-11-13T07:38:46.429Z,101660.75
2022-11-13T07:39:28.469Z,101661.28
2022-11-13T07:40:09.466Z,101657.63
2022-11-13T07:40:49.484Z,101652.50
2022-11-13T07:41:30.447Z,101650.47
2022-11-13T07:42:11.619Z,101652.91
2022-11-13T07:42:52.433Z,101650.97
2022-11-13T07:43:33.468Z,101655.13
2022-11-13T07:44:27.262Z,101648.00
2022-11-13T07:45:14.553Z,101651.19
2022-11-13T07:46:00.433Z,101631.78
2022-11-13T07:46:40.458Z,101650.53
2022-11-13T07:47:20.416Z,101646.84
2022-11-13T07:48:16.468Z,101651.97
2022-11-13T07:49:10.411Z,101639.81
2022-11-13T07:50:10.748Z,101651.69
2022-11-13T07:51:06.455Z,101656.97
2022-11-13T07:52:00.446Z,101640.38
2022-11-13T07:52:55.425Z,101655.16
2022-11-13T07:53:36.445Z,101662.28
2022-11-13T07:54:16.493Z,101661.31
2022-11-13T07:54:56.392Z,101659.41